createdAt,value
2022-11-12T00:03:05.308Z,5.82
2022-11-12T00:06:25.831Z,5.43
2022-11-12T00:09:46.229Z,5.25
2022-11-12T00:13:06.976Z,5.15
2022-11-12T00:16:27.507Z,4.95
2022-11-12T00:19:48.309Z,5.28
2022-11-12T00:23:08.925Z,5.57
2022-11-12T00:26:29.358Z,5.75
2022-11-12T00:29:49.844Z,4.88
2022-11-12T00:33:10.229Z,4.93
2022-11-12T00:36:31.486Z,4.57
2022-11-12T00:39:52.538Z,4.70
2022-11-12T00:46:33.472Z,5.63
2022-11-12T00:49:53.961Z,5.05
2022-11-12T00:53:14.405Z,4.75
2022-11-12T00:56:35.799Z,5.45
2022-11-12T00:59:56.578Z,5.30
2022-11-12T01:03:17.055Z,4.72
2022-11-12T01:06:40.639Z,4.57
2022-11-12T01:10:01.230Z,4.63
2022-11-12T01:13:21.928Z,4.32
2022-11-12T01:16:42.462Z,3.92
2022-11-12T01:20:02.997Z,4.22
2022-11-12T01:23:23.865Z,4.00
2022-11-12T01:26:44.694Z,4.57
2022-11-12T01:30:06.010Z,4.40
2022-11-12T01:33:26.471Z,4.18
2022-11-12T01:36:47.163Z,4.10
2022-11-12T01:40:08.136Z,4.55
2022-11-12T01:43:28.737Z,5.05
2022-11-12T01:47:14.406Z,5.35
2022-11-12T01:50:39.201Z,5.00
2022-11-12T01:54:03.842Z,5.63
2022-11-12T01:57:34.648Z,4.72
2022-11-12T02:00:56.991Z,5.45
2022-11-12T02:04:17.931Z,4.40
2022-11-12T02:11:14.457Z,4.68
2022-11-12T02:14:35.148Z,4.10
2022-11-12T02:17:55.954Z,4.35
2022-11-12T02:21:22.856Z,3.95
2022-11-12T02:24:43.678Z,4.07
2022-11-12T02:28:07.841Z,5.20
2022-11-12T02:31:28.737Z,4.60
2022-11-12T02:34:49.494Z,4.15
2022-11-12T02:38:10.273Z,4.68
2022-11-12T02:41:30.747Z,4.75
2022-11-12T02:44:51.468Z,4.75
2022-11-12T02:48:24.853Z,4.85
2022-11-12T02:51:45.303Z,3.92
2022-11-12T02:55:07.502Z,4.68
2022-11-12T02:58:29.205Z,4.93
2022-11-12T03:01:49.889Z,4.63
2022-11-12T03:05:11.708Z,4.47
2022-11-12T03:08:32.303Z,4.35
2022-11-12T03:11:52.830Z,4.60
2022-11-12T03:15:13.192Z,5.05
2022-11-12T03:18:34.041Z,3.83
2022-11-12T03:21:54.635Z,4.35
2022-11-12T03:25:15.249Z,3.67
2022-11-12T03:28:35.834Z,4.20
2022-11-12T03:31:56.368Z,3.85
2022-11-12T03:35:16.920Z,3.88
2022-11-12T03:38:37.300Z,3.83
2022-11-12T03:41:57.723Z,3.83
2022-11-12T03:45:20.186Z,4.03
2022-11-12T03:48:40.816Z,4.03
2022-11-12T03:52:01.511Z,3.63
2022-11-12T03:58:41.462Z,3.78
2022-11-12T04:02:02.562Z,3.70
2022-11-12T04:05:23.629Z,3.47
2022-11-12T04:08:44.219Z,3.42
2022-11-12T04:12:07.261Z,3.42
2022-11-12T04:15:27.641Z,3.35
2022-11-12T04:18:50.557Z,3.53
2022-11-12T04:22:11.845Z,4.13
2022-11-12T04:25:32.071Z,3.80
2022-11-12T04:28:52.539Z,4.10
2022-11-12T04:32:13.338Z,4.03
2022-11-12T04:38:54.647Z,3.63
2022-11-12T04:42:15.180Z,3.25
2022-11-12T04:45:36.180Z,3.65
2022-11-12T04:48:56.563Z,4.82
2022-11-12T04:52:17.657Z,3.85
2022-11-12T04:55:38.226Z,3.35
2022-11-12T04:58:58.793Z,3.67
2022-11-12T05:02:19.304Z,4.28
2022-11-12T05:05:39.731Z,3.83
2022-11-12T05:09:00.121Z,4.40
2022-11-12T05:12:20.522Z,3.95
2022-11-12T05:15:43.300Z,3.95
2022-11-12T05:19:04.304Z,4.18
2022-11-12T05:22:42.624Z,4.10
2022-11-12T05:26:04.464Z,4.20
2022-11-12T05:29:25.079Z,4.60
2022-11-12T05:32:45.682Z,4.82
2022-11-12T05:36:06.474Z,4.70
2022-11-12T05:39:26.845Z,5.30
2022-11-12T05:42:47.492Z,5.45
2022-11-12T05:46:08.103Z,6.75
2022-11-12T05:49:28.794Z,6.43
2022-11-12T05:59:36.779Z,6.15
2022-11-12T06:02:58.183Z,5.28
2022-11-12T06:06:18.765Z,5.75
2022-11-12T06:09:39.310Z,6.05
2022-11-12T06:12:59.741Z,6.20
2022-11-12T06:16:20.109Z,5.82
2022-11-12T06:19:40.703Z,5.93
2022-11-12T06:23:04.307Z,5.90
2022-11-12T06:26:28.642Z,6.10
2022-11-12T06:29:49.344Z,5.78
2022-11-12T06:33:09.927Z,6.45
2022-11-12T06:36:30.364Z,5.95
2022-11-12T06:39:50.815Z,5.95
2022-11-12T06:43:11.327Z,5.95
2022-11-12T06:46:31.823Z,5.60
2022-11-12T06:49:52.391Z,6.53
2022-11-12T06:53:12.976Z,6.00
2022-11-12T06:56:33.353Z,5.68
2022-11-12T06:59:53.805Z,5.07
2022-11-12T07:03:14.653Z,4.65
2022-11-12T07:06:35.514Z,4.05
2022-11-12T07:09:55.811Z,4.53
2022-11-12T07:13:16.364Z,3.78
2022-11-12T07:16:36.994Z,3.72
2022-11-12T07:20:02.372Z,3.95
2022-11-12T07:23:24.694Z,3.97
2022-11-12T07:26:47.656Z,4.35
2022-11-12T07:30:08.794Z,4.68
2022-11-12T07:36:49.826Z,4.40
2022-11-12T07:40:11.012Z,4.18
2022-11-12T07:43:33.207Z,4.38
2022-11-12T07:46:53.931Z,5.60
2022-11-12T07:50:14.804Z,4.45
2022-11-12T07:53:35.495Z,4.97
2022-11-12T07:56:56.021Z,4.57
2022-11-12T08:00:17.158Z,4.90
2022-11-12T08:03:37.787Z,5.25
2022-11-12T08:06:58.415Z,6.05
2022-11-12T08:10:18.865Z,4.97
2022-11-12T08:13:39.454Z,5.65
2022-11-12T08:17:02.419Z,5.53
2022-11-12T08:20:23.128Z,5.85
2022-11-12T08:23:43.869Z,5.15
2022-11-12T08:27:04.393Z,5.95
2022-11-12T08:30:29.252Z,5.45
2022-11-12T08:33:50.419Z,5.53
2022-11-12T08:37:10.847Z,5.32
2022-11-12T08:40:32.612Z,5.35
2022-11-12T08:43:53.158Z,5.78
2022-11-12T08:47:14.412Z,5.97
2022-11-12T08:50:37.574Z,6.30
2022-11-12T08:53:58.107Z,6.57
2022-11-12T08:57:18.538Z,7.03
2022-11-12T09:00:42.597Z,7.30
2022-11-12T09:04:03.218Z,6.65
2022-11-12T09:11:06.075Z,7.65
2022-11-12T09:14:26.506Z,7.88
2022-11-12T09:17:47.215Z,7.70
2022-11-12T09:21:10.999Z,8.95
2022-11-12T09:24:31.350Z,8.05
2022-11-12T09:27:52.043Z,7.85
2022-11-12T09:31:12.554Z,7.72
2022-11-12T09:34:33.791Z,8.45
2022-11-12T09:37:54.253Z,7.65
2022-11-12T09:41:21.497Z,7.22
2022-11-12T09:44:46.918Z,7.20
2022-11-12T09:48:12.309Z,6.72
2022-11-12T09:51:35.914Z,8.95
2022-11-12T09:55:13.580Z,8.93
2022-11-12T09:58:34.315Z,9.60
2022-11-12T10:02:36.615Z,8.18
2022-11-12T10:06:22.449Z,7.90
2022-11-12T10:09:47.472Z,7.72
2022-11-12T10:13:43.052Z,8.32
2022-11-12T10:17:17.339Z,7.05
2022-11-12T10:20:55.092Z,6.38
2022-11-12T10:24:15.590Z,6.80
2022-11-12T10:27:41.538Z,8.20
2022-11-12T10:31:11.076Z,8.15
2022-11-12T10:34:34.247Z,7.68
2022-11-12T10:38:12.167Z,8.05
2022-11-12T10:41:35.587Z,8.10
2022-11-12T10:45:19.991Z,9.25
2022-11-12T10:48:54.932Z,9.07
2022-11-12T10:52:24.757Z,8.68
2022-11-12T10:55:57.275Z,8.30
2022-11-12T10:59:19.774Z,7.97
2022-11-12T11:02:53.620Z,9.20
2022-11-12T11:06:17.389Z,9.27
2022-11-12T11:09:51.433Z,9.02
2022-11-12T11:13:26.758Z,10.10
2022-11-12T11:16:53.708Z,10.13
2022-11-12T11:20:24.773Z,10.32
2022-11-12T11:23:55.605Z,11.45
2022-11-12T11:28:06.600Z,10.82
2022-11-12T11:31:36.143Z,11.15
2022-11-12T11:35:24.964Z,10.88
2022-11-12T11:39:04.342Z,29.88
2022-11-12T11:42:56.953Z,18.17
2022-11-12T11:46:45.538Z,12.98
2022-11-12T12:03:15.793Z,10.38
2022-11-12T12:06:50.161Z,10.52
2022-11-12T12:10:46.296Z,10.75
2022-11-12T12:14:47.190Z,11.70
2022-11-12T12:18:20.032Z,11.10
2022-11-12T12:21:46.011Z,10.75
2022-11-12T12:25:22.451Z,10.25
2022-11-12T12:28:50.003Z,9.80
2022-11-12T12:32:13.543Z,10.45
2022-11-12T12:35:47.509Z,9.95
2022-11-12T12:39:47.945Z,10.30
2022-11-12T12:43:29.233Z,10.20
2022-11-12T12:46:57.911Z,9.98
2022-11-12T12:50:21.465Z,8.18
2022-11-12T12:53:42.064Z,9.45
2022-11-12T12:57:25.608Z,8.73
2022-11-12T13:01:14.984Z,10.20
2022-11-12T13:04:53.839Z,8.85
2022-11-12T13:08:21.076Z,8.90
2022-11-12T13:11:41.907Z,8.93
2022-11-12T13:15:18.768Z,8.48
2022-11-12T13:18:39.300Z,9.80
2022-11-12T13:22:18.747Z,9.43
2022-11-12T13:25:39.727Z,9.10
2022-11-12T13:29:24.230Z,8.23
2022-11-12T13:32:50.739Z,7.85
2022-11-12T13:36:25.694Z,9.00
2022-11-12T13:39:46.937Z,9.77
2022-11-12T13:46:34.063Z,9.38
2022-11-12T13:49:58.818Z,9.85
2022-11-12T13:53:28.634Z,10.10
2022-11-12T13:56:49.495Z,9.25
2022-11-12T14:00:19.714Z,9.13
2022-11-12T14:03:51.648Z,8.98
2022-11-12T14:07:27.254Z,9.45
2022-11-12T14:11:18.994Z,10.57
2022-11-12T14:14:42.973Z,9.60
2022-11-12T14:18:28.542Z,10.18
2022-11-12T14:22:12.338Z,9.63
2022-11-12T14:25:33.025Z,10.13
2022-11-12T14:28:57.505Z,10.18
2022-11-12T14:32:19.003Z,10.27
2022-11-12T14:35:40.802Z,10.13
2022-11-12T14:39:01.432Z,10.15
2022-11-12T14:45:50.896Z,11.80
2022-11-12T14:49:19.789Z,11.02
2022-11-12T14:52:47.977Z,11.00
2022-11-12T14:56:13.894Z,11.10
2022-11-12T14:59:36.488Z,11.25
2022-11-12T15:02:59.886Z,11.10
2022-11-12T15:06:31.857Z,11.98
2022-11-12T15:09:52.457Z,10.50
2022-11-12T15:13:23.132Z,12.32
2022-11-12T15:16:44.117Z,11.43
2022-11-12T15:20:16.708Z,12.52
2022-11-12T15:23:39.671Z,11.27
2022-11-12T15:27:20.154Z,11.98
2022-11-12T15:30:40.966Z,12.10
2022-11-12T15:34:31.901Z,11.23
2022-11-12T15:37:53.200Z,12.05
2022-11-12T15:41:30.644Z,12.68
2022-11-12T15:44:57.499Z,11.57
2022-11-12T15:48:18.320Z,12.48
2022-11-12T15:51:39.127Z,12.63
2022-11-12T15:54:59.729Z,11.65
2022-11-12T15:58:33.894Z,12.70
2022-11-12T16:01:56.911Z,13.85
2022-11-12T16:05:18.657Z,14.02
2022-11-12T16:08:39.151Z,11.63
2022-11-12T16:12:03.630Z,13.30
2022-11-12T16:15:24.655Z,12.90
2022-11-12T16:18:45.437Z,12.75
2022-11-12T16:22:06.169Z,13.43
2022-11-12T16:25:29.853Z,14.45
2022-11-12T16:28:50.487Z,15.02
2022-11-12T16:32:14.355Z,16.52
2022-11-12T16:35:35.936Z,14.95
2022-11-12T16:38:56.725Z,13.43
2022-11-12T16:42:17.480Z,12.40
2022-11-12T16:45:43.542Z,11.57
2022-11-12T16:49:05.401Z,12.07
2022-11-12T16:52:26.070Z,12.75
2022-11-12T16:55:46.648Z,12.60
2022-11-12T16:59:07.328Z,12.40
2022-11-12T17:02:28.296Z,13.52
2022-11-12T17:05:52.871Z,13.80
2022-11-12T17:09:14.704Z,14.43
2022-11-12T17:12:35.509Z,15.02
2022-11-12T17:15:59.150Z,16.48
2022-11-12T17:19:19.671Z,16.50
2022-11-12T17:22:40.166Z,17.63
2022-11-12T17:26:06.829Z,16.83
2022-11-12T17:29:27.714Z,17.25
2022-11-12T17:32:48.045Z,15.10
2022-11-12T17:36:16.083Z,16.35
2022-11-12T17:39:36.611Z,16.38
2022-11-12T17:42:57.027Z,16.30
2022-11-12T17:46:17.584Z,17.17
2022-11-12T17:49:38.297Z,16.88
2022-11-12T17:53:01.467Z,15.65
2022-11-12T17:56:24.273Z,16.13
2022-11-12T17:59:45.058Z,16.67
2022-11-12T18:03:06.645Z,16.92
2022-11-12T18:06:28.217Z,16.52
2022-11-12T18:09:48.642Z,16.58
2022-11-12T18:13:10.856Z,17.05
2022-11-12T18:16:31.583Z,18.85
2022-11-12T18:19:52.080Z,18.70
2022-11-12T18:23:13.182Z,18.88
2022-11-12T18:26:33.749Z,17.00
2022-11-12T18:29:54.253Z,17.88
2022-11-12T18:33:14.688Z,18.15
2022-11-12T18:36:35.215Z,17.90
2022-11-12T18:39:55.813Z,17.80
2022-11-12T18:43:16.717Z,18.20
2022-11-12T18:46:38.101Z,20.33
2022-11-12T18:50:00.133Z,19.33
2022-11-12T18:53:22.683Z,18.38
2022-11-12T18:56:43.418Z,17.23
2022-11-12T19:00:06.991Z,17.13
2022-11-12T19:03:28.108Z,17.95
2022-11-12T19:06:50.339Z,15.50
2022-11-12T19:10:14.871Z,15.43
2022-11-12T19:13:40.773Z,15.38
2022-11-12T19:17:01.583Z,16.00
2022-11-12T19:23:43.127Z,15.60
2022-11-12T19:27:04.576Z,16.58
2022-11-12T19:30:27.856Z,17.13
2022-11-12T19:33:55.015Z,15.75
2022-11-12T19:37:33.053Z,14.80
2022-11-12T19:40:54.242Z,14.10
2022-11-12T19:44:14.901Z,14.25
2022-11-12T19:47:35.453Z,13.85
2022-11-12T19:51:00.582Z,13.38
2022-11-12T19:54:22.267Z,14.23
2022-11-12T19:57:44.436Z,13.25
2022-11-12T20:01:06.009Z,11.85
2022-11-12T20:04:28.701Z,11.00
2022-11-12T20:07:49.703Z,11.57
2022-11-12T20:11:13.797Z,10.88
2022-11-12T20:14:34.607Z,11.82
2022-11-12T20:17:55.324Z,12.55
2022-11-12T20:21:18.879Z,12.55
2022-11-12T20:28:07.933Z,12.13
2022-11-12T20:31:28.557Z,13.23
2022-11-12T20:34:48.927Z,10.68
2022-11-12T20:38:09.527Z,11.00
2022-11-12T20:41:29.980Z,10.85
2022-11-12T20:44:51.204Z,10.82
2022-11-12T20:48:12.510Z,10.00
2022-11-12T20:54:53.511Z,10.10
2022-11-12T20:58:13.932Z,9.98
2022-11-12T21:01:34.469Z,10.00
2022-11-12T21:04:55.881Z,10.80
2022-11-12T21:08:19.891Z,9.52
2022-11-12T21:11:43.913Z,9.88
2022-11-12T21:15:05.154Z,9.52
2022-11-12T21:18:27.090Z,9.80
2022-11-12T21:21:48.094Z,10.43
2022-11-12T21:25:11.313Z,10.98
2022-11-12T21:28:20.748Z,9.50
2022-11-12T21:31:41.743Z,9.50
2022-11-12T21:35:02.493Z,8.55
2022-11-12T21:38:24.079Z,9.15
2022-11-12T21:41:45.464Z,10.30
2022-11-12T21:45:06.920Z,9.70
2022-11-12T21:48:29.218Z,9.45
2022-11-12T21:51:50.286Z,9.55
2022-11-12T21:55:11.060Z,9.20
2022-11-12T21:58:31.665Z,9.68
2022-11-12T22:01:53.813Z,10.15
2022-11-12T22:05:14.646Z,9.35
2022-11-12T22:11:56.718Z,9.25
2022-11-12T22:15:23.999Z,8.93
2022-11-12T22:18:54.952Z,9.18
2022-11-12T22:25:36.514Z,9.20
2022-11-12T22:28:58.763Z,10.73
2022-11-12T22:32:21.939Z,10.23
2022-11-12T22:35:42.450Z,9.45
2022-11-12T22:39:04.601Z,9.93
2022-11-12T22:42:26.151Z,8.70
2022-11-12T22:45:46.904Z,9.32
2022-11-12T22:49:07.667Z,10.50
2022-11-12T22:52:29.665Z,9.18
2022-11-12T22:59:11.724Z,8.80
2022-11-12T23:02:36.568Z,9.45
2022-11-12T23:05:58.659Z,8.45
2022-11-12T23:09:24.139Z,8.52
2022-11-12T23:12:45.473Z,8.68
2022-11-12T23:16:09.308Z,8.82
2022-11-12T23:19:30.319Z,9.57
2022-11-12T23:22:52.513Z,8.85
2022-11-12T23:26:20.314Z,9.55
2022-11-12T23:29:42.675Z,8.60
2022-11-12T23:33:03.864Z,9.30
2022-11-12T23:36:26.451Z,8.90
2022-11-12T23:39:47.385Z,8.55
2022-11-12T23:43:08.102Z,9.65
2022-11-12T23:46:16.511Z,9.13
2022-11-12T23:49:36.926Z,9.50
2022-11-12T23:52:57.409Z,8.73
2022-11-12T23:56:19.266Z,8.60
2022-11-12T23:59:40.419Z,8.98
